sensor_id;sensor_type;location;lat;lon;timestamp;P1;durP1;ratioP1;P2;durP2;ratioP2
22606;SDS011;11470;20.968;105.834;2024-02-21T00:03:27;50.13;;;28.40;;
22606;SDS011;11470;20.968;105.834;2024-02-21T00:08:32;49.40;;;32.17;;
22606;SDS011;11470;20.968;105.834;2024-02-21T00:13:38;61.20;;;37.93;;
22606;SDS011;11470;20.968;105.834;2024-02-21T00:18:43;47.47;;;29.50;;
22606;SDS011;11470;20.968;105.834;2024-02-21T00:28:54;40.22;;;26.02;;
22606;SDS011;11470;20.968;105.834;2024-02-21T00:33:59;47.03;;;27.77;;
22606;SDS011;11470;20.968;105.834;2024-02-21T00:39:04;39.53;;;22.63;;
22606;SDS011;11470;20.968;105.834;2024-02-21T00:44:09;34.13;;;19.27;;
22606;SDS011;11470;20.968;105.834;2024-02-21T00:49:14;34.93;;;15.90;;
22606;SDS011;11470;20.968;105.834;2024-02-21T00:54:19;47.30;;;28.63;;
22606;SDS011;11470;20.968;105.834;2024-02-21T00:59:24;43.50;;;27.40;;
22606;SDS011;11470;20.968;105.834;2024-02-21T01:04:30;55.03;;;33.43;;
22606;SDS011;11470;20.968;105.834;2024-02-21T01:09:36;56.13;;;36.10;;
22606;SDS011;11470;20.968;105.834;2024-02-21T01:14:41;44.33;;;27.43;;
22606;SDS011;11470;20.968;105.834;2024-02-21T01:19:47;59.57;;;33.20;;
22606;SDS011;11470;20.968;105.834;2024-02-21T02:08:54;48.55;;;30.67;;
22606;SDS011;11470;20.968;105.834;2024-02-21T02:14:03;47.50;;;24.65;;
22606;SDS011;11470;20.968;105.834;2024-02-21T02:19:11;51.70;;;31.60;;
22606;SDS011;11470;20.968;105.834;2024-02-21T02:24:28;65.70;;;43.22;;
22606;SDS011;11470;20.968;105.834;2024-02-21T02:48:39;60.85;;;37.90;;
22606;SDS011;11470;20.968;105.834;2024-02-21T02:53:50;51.45;;;28.33;;
22606;SDS011;11470;20.968;105.834;2024-02-21T02:58:55;57.27;;;38.50;;
22606;SDS011;11470;20.968;105.834;2024-02-21T03:17:03;64.88;;;35.28;;
22606;SDS011;11470;20.968;105.834;2024-02-21T03:29:18;64.40;;;39.42;;
22606;SDS011;11470;20.968;105.834;2024-02-21T03:40:47;64.57;;;41.92;;
22606;SDS011;11470;20.968;105.834;2024-02-21T03:45:55;78.15;;;51.70;;
22606;SDS011;11470;20.968;105.834;2024-02-21T03:56:46;79.72;;;51.17;;
22606;SDS011;11470;20.968;105.834;2024-02-21T04:06:57;71.90;;;44.55;;
22606;SDS011;11470;20.968;105.834;2024-02-21T04:12:12;76.63;;;46.78;;
22606;SDS011;11470;20.968;105.834;2024-02-21T04:17:17;78.25;;;49.60;;
22606;SDS011;11470;20.968;105.834;2024-02-21T04:22:25;82.18;;;52.00;;
22606;SDS011;11470;20.968;105.834;2024-02-21T04:27:30;79.37;;;51.33;;
22606;SDS011;11470;20.968;105.834;2024-02-21T04:32:36;73.50;;;45.03;;
22606;SDS011;11470;20.968;105.834;2024-02-21T04:37:42;87.38;;;56.03;;
22606;SDS011;11470;20.968;105.834;2024-02-21T04:42:48;111.88;;;65.40;;
22606;SDS011;11470;20.968;105.834;2024-02-21T04:47:53;111.40;;;66.90;;
22606;SDS011;11470;20.968;105.834;2024-02-21T04:52:59;107.57;;;64.50;;
22606;SDS011;11470;20.968;105.834;2024-02-21T04:58:04;81.93;;;52.05;;
22606;SDS011;11470;20.968;105.834;2024-02-21T05:03:10;108.95;;;69.80;;
22606;SDS011;11470;20.968;105.834;2024-02-21T05:08:15;109.97;;;68.33;;
22606;SDS011;11470;20.968;105.834;2024-02-21T05:13:20;98.07;;;63.60;;
22606;SDS011;11470;20.968;105.834;2024-02-21T05:18:25;107.60;;;69.17;;
22606;SDS011;11470;20.968;105.834;2024-02-21T05:23:31;79.07;;;51.55;;
22606;SDS011;11470;20.968;105.834;2024-02-21T05:28:42;120.25;;;75.55;;
22606;SDS011;11470;20.968;105.834;2024-02-21T05:33:48;102.88;;;66.18;;
22606;SDS011;11470;20.968;105.834;2024-02-21T05:38:53;100.05;;;64.75;;
22606;SDS011;11470;20.968;105.834;2024-02-21T05:43:58;114.22;;;73.25;;
22606;SDS011;11470;20.968;105.834;2024-02-21T05:49:03;116.63;;;76.07;;
22606;SDS011;11470;20.968;105.834;2024-02-21T05:54:08;94.03;;;61.15;;
22606;SDS011;11470;20.968;105.834;2024-02-21T05:59:13;99.07;;;68.53;;
22606;SDS011;11470;20.968;105.834;2024-02-21T06:04:18;122.15;;;74.30;;
22606;SDS011;11470;20.968;105.834;2024-02-21T06:09:22;112.47;;;76.75;;
22606;SDS011;11470;20.968;105.834;2024-02-21T06:14:28;97.23;;;64.03;;
22606;SDS011;11470;20.968;105.834;2024-02-21T06:19:33;79.83;;;52.83;;
22606;SDS011;11470;20.968;105.834;2024-02-21T06:24:38;108.53;;;71.13;;
22606;SDS011;11470;20.968;105.834;2024-02-21T06:29:43;88.57;;;61.60;;
22606;SDS011;11470;20.968;105.834;2024-02-21T06:34:48;73.13;;;49.75;;
22606;SDS011;11470;20.968;105.834;2024-02-21T06:39:53;88.07;;;61.90;;
22606;SDS011;11470;20.968;105.834;2024-02-21T06:44:58;66.53;;;46.23;;
22606;SDS011;11470;20.968;105.834;2024-02-21T06:50:03;87.47;;;60.67;;
22606;SDS011;11470;20.968;105.834;2024-02-21T06:55:08;85.60;;;63.03;;
22606;SDS011;11470;20.968;105.834;2024-02-21T07:00:13;85.85;;;59.00;;
22606;SDS011;11470;20.968;105.834;2024-02-21T07:10:24;86.53;;;61.97;;
22606;SDS011;11470;20.968;105.834;2024-02-21T07:15:29;86.97;;;59.53;;
22606;SDS011;11470;20.968;105.834;2024-02-21T07:20:37;79.05;;;55.58;;
22606;SDS011;11470;20.968;105.834;2024-02-21T07:25:43;79.63;;;53.20;;
22606;SDS011;11470;20.968;105.834;2024-02-21T07:30:48;69.20;;;51.70;;
22606;SDS011;11470;20.968;105.834;2024-02-21T07:35:53;77.10;;;52.27;;
22606;SDS011;11470;20.968;105.834;2024-02-21T07:40:58;71.13;;;51.83;;
22606;SDS011;11470;20.968;105.834;2024-02-21T07:46:03;75.03;;;51.67;;
22606;SDS011;11470;20.968;105.834;2024-02-21T07:51:08;64.67;;;44.03;;
22606;SDS011;11470;20.968;105.834;2024-02-21T07:56:13;67.18;;;48.13;;
22606;SDS011;11470;20.968;105.834;2024-02-21T08:01:20;73.50;;;50.03;;
22606;SDS011;11470;20.968;105.834;2024-02-21T08:06:25;69.15;;;48.60;;
22606;SDS011;11470;20.968;105.834;2024-02-21T08:11:31;65.10;;;48.25;;
22606;SDS011;11470;20.968;105.834;2024-02-21T08:16:36;63.30;;;46.93;;
22606;SDS011;11470;20.968;105.834;2024-02-21T08:21:41;63.65;;;45.35;;
22606;SDS011;11470;20.968;105.834;2024-02-21T08:26:46;62.90;;;44.97;;
22606;SDS011;11470;20.968;105.834;2024-02-21T08:31:51;67.47;;;48.93;;
22606;SDS011;11470;20.968;105.834;2024-02-21T08:36:58;70.50;;;46.95;;
22606;SDS011;11470;20.968;105.834;2024-02-21T08:42:04;66.03;;;46.72;;
22606;SDS011;11470;20.968;105.834;2024-02-21T08:47:12;64.78;;;46.47;;
22606;SDS011;11470;20.968;105.834;2024-02-21T08:52:18;68.43;;;46.83;;
22606;SDS011;11470;20.968;105.834;2024-02-21T08:57:23;62.50;;;45.88;;
22606;SDS011;11470;20.968;105.834;2024-02-21T09:02:29;83.47;;;53.72;;
22606;SDS011;11470;20.968;105.834;2024-02-21T09:07:35;70.80;;;44.50;;
22606;SDS011;11470;20.968;105.834;2024-02-21T09:12:40;60.75;;;43.72;;
22606;SDS011;11470;20.968;105.834;2024-02-21T09:17:45;63.83;;;45.42;;
22606;SDS011;11470;20.968;105.834;2024-02-21T09:22:50;64.30;;;44.40;;
22606;SDS011;11470;20.968;105.834;2024-02-21T09:27:56;61.08;;;37.42;;
22606;SDS011;11470;20.968;105.834;2024-02-21T09:33:04;68.38;;;40.17;;
22606;SDS011;11470;20.968;105.834;2024-02-21T09:38:09;61.80;;;37.63;;
22606;SDS011;11470;20.968;105.834;2024-02-21T09:43:15;66.83;;;38.97;;
22606;SDS011;11470;20.968;105.834;2024-02-21T09:48:25;62.28;;;42.47;;
22606;SDS011;11470;20.968;105.834;2024-02-21T09:53:49;63.80;;;40.42;;
22606;SDS011;11470;20.968;105.834;2024-02-21T09:59:13;60.78;;;41.20;;
22606;SDS011;11470;20.968;105.834;2024-02-21T10:04:23;64.80;;;41.67;;
22606;SDS011;11470;20.968;105.834;2024-02-21T10:09:28;59.70;;;41.28;;
22606;SDS011;11470;20.968;105.834;2024-02-21T10:14:35;63.30;;;41.58;;
22606;SDS011;11470;20.968;105.834;2024-02-21T10:19:40;55.58;;;36.72;;
22606;SDS011;11470;20.968;105.834;2024-02-21T10:24:46;65.03;;;38.87;;
22606;SDS011;11470;20.968;105.834;2024-02-21T10:29:52;61.63;;;37.72;;
22606;SDS011;11470;20.968;105.834;2024-02-21T10:35:01;57.80;;;38.05;;
22606;SDS011;11470;20.968;105.834;2024-02-21T10:40:12;69.47;;;39.65;;
22606;SDS011;11470;20.968;105.834;2024-02-21T10:45:37;70.00;;;39.85;;
22606;SDS011;11470;20.968;105.834;2024-02-21T10:51:01;54.05;;;37.45;;
22606;SDS011;11470;20.968;105.834;2024-02-21T10:56:29;55.55;;;36.08;;
22606;SDS011;11470;20.968;105.834;2024-02-21T11:01:35;54.63;;;37.35;;
22606;SDS011;11470;20.968;105.834;2024-02-21T11:06:41;52.20;;;36.70;;
22606;SDS011;11470;20.968;105.834;2024-02-21T11:11:47;63.35;;;36.55;;
22606;SDS011;11470;20.968;105.834;2024-02-21T11:17:23;57.95;;;36.20;;
22606;SDS011;11470;20.968;105.834;2024-02-21T11:22:40;56.37;;;35.67;;
22606;SDS011;11470;20.968;105.834;2024-02-21T11:27:48;68.53;;;37.38;;
22606;SDS011;11470;20.968;105.834;2024-02-21T11:33:06;58.35;;;35.83;;
22606;SDS011;11470;20.968;105.834;2024-02-21T11:38:13;64.85;;;37.83;;
22606;SDS011;11470;20.968;105.834;2024-02-21T11:43:22;58.72;;;36.42;;
22606;SDS011;11470;20.968;105.834;2024-02-21T11:48:29;53.30;;;33.88;;
22606;SDS011;11470;20.968;105.834;2024-02-21T11:53:38;55.13;;;34.83;;
22606;SDS011;11470;20.968;105.834;2024-02-21T11:58:58;55.90;;;32.85;;
22606;SDS011;11470;20.968;105.834;2024-02-21T12:04:07;56.20;;;35.25;;
22606;SDS011;11470;20.968;105.834;2024-02-21T12:09:16;55.70;;;31.23;;
22606;SDS011;11470;20.968;105.834;2024-02-21T12:14:22;54.63;;;32.83;;
22606;SDS011;11470;20.968;105.834;2024-02-21T12:19:30;50.45;;;30.23;;
22606;SDS011;11470;20.968;105.834;2024-02-21T12:24:36;50.65;;;30.48;;
22606;SDS011;11470;20.968;105.834;2024-02-21T12:29:42;50.75;;;31.55;;
22606;SDS011;11470;20.968;105.834;2024-02-21T12:34:48;51.50;;;30.25;;
22606;SDS011;11470;20.968;105.834;2024-02-21T12:39:56;51.85;;;31.15;;
22606;SDS011;11470;20.968;105.834;2024-02-21T12:45:01;58.35;;;29.70;;
22606;SDS011;11470;20.968;105.834;2024-02-21T12:50:07;52.35;;;30.15;;
22606;SDS011;11470;20.968;105.834;2024-02-21T12:55:15;46.65;;;28.85;;
22606;SDS011;11470;20.968;105.834;2024-02-21T13:00:21;57.13;;;29.08;;
22606;SDS011;11470;20.968;105.834;2024-02-21T13:05:30;56.47;;;28.77;;
22606;SDS011;11470;20.968;105.834;2024-02-21T13:15:40;45.30;;;27.13;;
22606;SDS011;11470;20.968;105.834;2024-02-21T13:20:48;52.78;;;27.77;;
22606;SDS011;11470;20.968;105.834;2024-02-21T13:25:54;54.75;;;29.20;;
22606;SDS011;11470;20.968;105.834;2024-02-21T13:30:59;43.47;;;27.05;;
22606;SDS011;11470;20.968;105.834;2024-02-21T13:36:04;49.97;;;27.53;;
22606;SDS011;11470;20.968;105.834;2024-02-21T13:41:09;56.72;;;29.13;;
22606;SDS011;11470;20.968;105.834;2024-02-21T13:51:19;57.25;;;28.05;;
22606;SDS011;11470;20.968;105.834;2024-02-21T13:56:24;46.03;;;26.45;;
22606;SDS011;11470;20.968;105.834;2024-02-21T14:01:30;61.88;;;26.88;;
22606;SDS011;11470;20.968;105.834;2024-02-21T14:06:40;54.47;;;28.80;;
22606;SDS011;11470;20.968;105.834;2024-02-21T14:11:48;46.72;;;27.75;;
22606;SDS011;11470;20.968;105.834;2024-02-21T14:16:53;42.50;;;27.37;;
22606;SDS011;11470;20.968;105.834;2024-02-21T14:21:59;55.97;;;26.88;;
22606;SDS011;11470;20.968;105.834;2024-02-21T14:27:05;44.53;;;24.45;;
22606;SDS011;11470;20.968;105.834;2024-02-21T14:32:12;44.30;;;25.15;;
22606;SDS011;11470;20.968;105.834;2024-02-21T14:37:18;39.15;;;23.35;;
22606;SDS011;11470;20.968;105.834;2024-02-21T14:42:23;49.27;;;26.33;;
22606;SDS011;11470;20.968;105.834;2024-02-21T14:47:32;45.42;;;25.42;;
22606;SDS011;11470;20.968;105.834;2024-02-21T14:52:37;52.75;;;23.45;;
22606;SDS011;11470;20.968;105.834;2024-02-21T14:57:42;56.28;;;26.85;;
22606;SDS011;11470;20.968;105.834;2024-02-21T15:02:48;51.88;;;25.63;;
22606;SDS011;11470;20.968;105.834;2024-02-21T15:07:55;58.08;;;26.05;;
22606;SDS011;11470;20.968;105.834;2024-02-21T15:13:03;46.63;;;24.35;;
22606;SDS011;11470;20.968;105.834;2024-02-21T15:23:13;40.15;;;20.45;;
22606;SDS011;11470;20.968;105.834;2024-02-21T15:28:19;51.97;;;23.42;;
22606;SDS011;11470;20.968;105.834;2024-02-21T15:33:24;45.60;;;21.65;;
22606;SDS011;11470;20.968;105.834;2024-02-21T15:38:30;44.10;;;22.83;;
22606;SDS011;11470;20.968;105.834;2024-02-21T15:43:36;38.87;;;21.77;;
22606;SDS011;11470;20.968;105.834;2024-02-21T15:48:43;53.92;;;22.45;;
22606;SDS011;11470;20.968;105.834;2024-02-21T15:54:00;38.90;;;18.87;;
22606;SDS011;11470;20.968;105.834;2024-02-21T15:59:06;41.13;;;21.38;;
22606;SDS011;11470;20.968;105.834;2024-02-21T16:04:11;45.53;;;21.10;;
22606;SDS011;11470;20.968;105.834;2024-02-21T16:09:18;42.03;;;20.42;;
22606;SDS011;11470;20.968;105.834;2024-02-21T16:14:23;41.95;;;19.33;;
22606;SDS011;11470;20.968;105.834;2024-02-21T16:19:30;43.45;;;20.95;;
22606;SDS011;11470;20.968;105.834;2024-02-21T16:24:38;45.80;;;22.77;;
22606;SDS011;11470;20.968;105.834;2024-02-21T16:29:44;46.20;;;20.77;;
22606;SDS011;11470;20.968;105.834;2024-02-21T16:34:49;35.60;;;17.20;;
22606;SDS011;11470;20.968;105.834;2024-02-21T16:39:55;35.75;;;19.50;;
22606;SDS011;11470;20.968;105.834;2024-02-21T16:45:00;45.00;;;21.77;;
22606;SDS011;11470;20.968;105.834;2024-02-21T16:50:09;41.10;;;20.10;;
22606;SDS011;11470;20.968;105.834;2024-02-21T16:55:15;46.95;;;20.23;;
22606;SDS011;11470;20.968;105.834;2024-02-21T17:00:21;41.55;;;18.92;;
22606;SDS011;11470;20.968;105.834;2024-02-21T17:05:26;44.78;;;20.85;;
22606;SDS011;11470;20.968;105.834;2024-02-21T17:10:33;54.13;;;22.00;;
22606;SDS011;11470;20.968;105.834;2024-02-21T17:15:38;41.87;;;18.80;;
22606;SDS011;11470;20.968;105.834;2024-02-21T17:20:43;44.47;;;19.95;;
22606;SDS011;11470;20.968;105.834;2024-02-21T17:25:48;43.70;;;19.77;;
22606;SDS011;11470;20.968;105.834;2024-02-21T17:30:56;35.15;;;18.67;;
22606;SDS011;11470;20.968;105.834;2024-02-21T17:36:01;46.03;;;22.67;;
22606;SDS011;11470;20.968;105.834;2024-02-21T17:41:07;45.85;;;21.50;;
22606;SDS011;11470;20.968;105.834;2024-02-21T17:51:17;43.50;;;21.25;;
22606;SDS011;11470;20.968;105.834;2024-02-21T17:56:22;44.35;;;21.80;;
22606;SDS011;11470;20.968;105.834;2024-02-21T18:01:27;53.35;;;22.90;;
22606;SDS011;11470;20.968;105.834;2024-02-21T18:06:33;41.60;;;21.23;;
22606;SDS011;11470;20.968;105.834;2024-02-21T18:11:38;40.63;;;21.03;;
22606;SDS011;11470;20.968;105.834;2024-02-21T18:16:43;48.60;;;22.40;;
22606;SDS011;11470;20.968;105.834;2024-02-21T18:21:48;50.30;;;23.58;;
22606;SDS011;11470;20.968;105.834;2024-02-21T18:26:54;38.42;;;20.45;;
22606;SDS011;11470;20.968;105.834;2024-02-21T18:31:59;36.17;;;19.67;;
22606;SDS011;11470;20.968;105.834;2024-02-21T18:37:05;51.58;;;24.48;;
22606;SDS011;11470;20.968;105.834;2024-02-21T18:42:10;54.00;;;24.80;;
22606;SDS011;11470;20.968;105.834;2024-02-21T18:47:15;46.57;;;22.57;;
22606;SDS011;11470;20.968;105.834;2024-02-21T18:52:20;48.50;;;22.70;;
22606;SDS011;11470;20.968;105.834;2024-02-21T18:57:25;46.50;;;24.00;;
22606;SDS011;11470;20.968;105.834;2024-02-21T19:02:30;42.63;;;21.52;;
22606;SDS011;11470;20.968;105.834;2024-02-21T19:07:35;45.22;;;22.55;;
22606;SDS011;11470;20.968;105.834;2024-02-21T19:17:46;57.40;;;26.08;;
22606;SDS011;11470;20.968;105.834;2024-02-21T19:22:51;62.65;;;28.70;;
22606;SDS011;11470;20.968;105.834;2024-02-21T19:27:57;49.83;;;26.10;;
22606;SDS011;11470;20.968;105.834;2024-02-21T19:33:02;47.73;;;25.70;;
22606;SDS011;11470;20.968;105.834;2024-02-21T19:38:08;46.53;;;25.23;;
22606;SDS011;11470;20.968;105.834;2024-02-21T19:43:13;41.67;;;25.45;;
22606;SDS011;11470;20.968;105.834;2024-02-21T19:48:18;43.47;;;23.40;;
22606;SDS011;11470;20.968;105.834;2024-02-21T19:53:23;43.67;;;23.33;;
22606;SDS011;11470;20.968;105.834;2024-02-21T19:58:28;43.20;;;22.80;;
22606;SDS011;11470;20.968;105.834;2024-02-21T20:03:35;57.03;;;25.55;;
22606;SDS011;11470;20.968;105.834;2024-02-21T20:08:41;48.78;;;23.48;;
22606;SDS011;11470;20.968;105.834;2024-02-21T20:13:46;36.23;;;21.13;;
22606;SDS011;11470;20.968;105.834;2024-02-21T20:18:51;41.40;;;22.87;;
22606;SDS011;11470;20.968;105.834;2024-02-21T20:23:56;40.65;;;23.88;;
22606;SDS011;11470;20.968;105.834;2024-02-21T20:29:02;47.23;;;23.07;;
22606;SDS011;11470;20.968;105.834;2024-02-21T20:34:08;49.30;;;22.95;;
22606;SDS011;11470;20.968;105.834;2024-02-21T20:39:13;52.30;;;25.02;;
22606;SDS011;11470;20.968;105.834;2024-02-21T20:44:22;36.25;;;21.48;;
22606;SDS011;11470;20.968;105.834;2024-02-21T20:49:29;39.70;;;23.38;;
22606;SDS011;11470;20.968;105.834;2024-02-21T20:54:34;50.43;;;26.20;;
22606;SDS011;11470;20.968;105.834;2024-02-21T20:59:39;40.78;;;24.45;;
22606;SDS011;11470;20.968;105.834;2024-02-21T21:04:43;47.75;;;27.55;;
22606;SDS011;11470;20.968;105.834;2024-02-21T21:09:49;47.75;;;25.40;;
22606;SDS011;11470;20.968;105.834;2024-02-21T21:14:54;38.27;;;24.57;;
22606;SDS011;11470;20.968;105.834;2024-02-21T21:19:59;41.47;;;24.50;;
22606;SDS011;11470;20.968;105.834;2024-02-21T21:25:08;46.72;;;24.90;;
22606;SDS011;11470;20.968;105.834;2024-02-21T21:30:13;58.95;;;30.10;;
22606;SDS011;11470;20.968;105.834;2024-02-21T21:35:19;57.97;;;29.97;;
22606;SDS011;11470;20.968;105.834;2024-02-21T21:40:24;43.22;;;24.70;;
22606;SDS011;11470;20.968;105.834;2024-02-21T21:45:30;50.33;;;27.65;;
22606;SDS011;11470;20.968;105.834;2024-02-21T21:50:34;37.60;;;23.35;;
22606;SDS011;11470;20.968;105.834;2024-02-21T21:55:39;46.70;;;27.08;;
22606;SDS011;11470;20.968;105.834;2024-02-21T22:00:44;47.85;;;27.00;;
22606;SDS011;11470;20.968;105.834;2024-02-21T22:05:51;43.70;;;24.92;;
22606;SDS011;11470;20.968;105.834;2024-02-21T22:10:56;51.65;;;26.25;;
22606;SDS011;11470;20.968;105.834;2024-02-21T22:16:01;48.20;;;26.70;;
22606;SDS011;11470;20.968;105.834;2024-02-21T22:21:08;37.88;;;23.55;;
22606;SDS011;11470;20.968;105.834;2024-02-21T22:26:13;44.85;;;24.60;;
22606;SDS011;11470;20.968;105.834;2024-02-21T22:31:21;40.22;;;23.27;;
22606;SDS011;11470;20.968;105.834;2024-02-21T22:36:26;42.28;;;24.27;;
22606;SDS011;11470;20.968;105.834;2024-02-21T22:41:31;42.45;;;22.45;;
22606;SDS011;11470;20.968;105.834;2024-02-21T22:46:36;34.57;;;21.13;;
22606;SDS011;11470;20.968;105.834;2024-02-21T22:51:44;38.67;;;23.50;;
22606;SDS011;11470;20.968;105.834;2024-02-21T22:56:50;35.00;;;21.38;;
22606;SDS011;11470;20.968;105.834;2024-02-21T23:01:54;32.13;;;20.97;;
22606;SDS011;11470;20.968;105.834;2024-02-21T23:07:00;33.08;;;22.65;;
22606;SDS011;11470;20.968;105.834;2024-02-21T23:12:05;34.35;;;21.38;;
22606;SDS011;11470;20.968;105.834;2024-02-21T23:17:11;30.20;;;20.50;;
22606;SDS011;11470;20.968;105.834;2024-02-21T23:22:17;33.90;;;23.03;;
22606;SDS011;11470;20.968;105.834;2024-02-21T23:27:22;27.63;;;20.08;;
22606;SDS011;11470;20.968;105.834;2024-02-21T23:32:28;26.10;;;21.27;;
22606;SDS011;11470;20.968;105.834;2024-02-21T23:37:36;27.50;;;19.10;;
22606;SDS011;11470;20.968;105.834;2024-02-21T23:42:41;31.40;;;21.42;;
22606;SDS011;11470;20.968;105.834;2024-02-21T23:47:48;27.73;;;20.25;;
22606;SDS011;11470;20.968;105.834;2024-02-21T23:52:53;27.48;;;19.55;;
22606;SDS011;11470;20.968;105.834;2024-02-21T23:57:59;25.03;;;19.63;;
